KAL017 RKSI-EGLL
Flight info
| Callsign | KAL017 |
|---|---|
| Flight time | N/A |
| Altitude | 30000 |
| Route | NOPIK Y697 AGAVO/K0830S0660 A591 IKEKA W4 FZ/K0933S0920 W4 HCH W200 DOVIV W55 PAMRU W34 LADIX B339 ASILA A575 UPREK W28 ISBOS/K0920S0980 W28 LAGEB W66 NUKTI B215 FKG A368 SARIN/K0913F320 N161 BURID/K0900F340 N161 GASBI/N0493F340 N161 LEKBA DCT LEYLA T916 MATAL M11 TABAS/N0493F360 M11 REBLO UM11 CRM UL746 ODERO L746 LUGEB DCT BUDOP DCT BEGLA DCT DEXIT DCT INBED DCT BOMBI DCT ADKUV DCT SOGRI DCT DENUT L608 LOGAN |
| Aircraft | B77W/H-SDE1E2E3FGHIJ2J3J4J5M1RWXY/LB1D1 |
Departure
| Time | N/A |
|---|---|
| Airport | Incheon International Airport (RKSI) |
Arrival
| Time | 2026-05-07 05:19 |
|---|---|
| Airport | London Heathrow Airport (EGLL) |
| Time | Latitude | Longitude | Altitude | Speed | Heading |
|---|---|---|---|---|---|
| 2026-05-07 04:15 | 50.05868 | 8.79345 | 35934 ft | 482 kts | 291° |
| 2026-05-07 04:15 | 50.07083 | 8.74493 | 35939 ft | 481 kts | 289° |
| 2026-05-07 04:16 | 50.09386 | 8.64660 | 35939 ft | 481 kts | 288° |
| 2026-05-07 04:16 | 50.11660 | 8.54833 | 35942 ft | 481 kts | 288° |
| 2026-05-07 04:17 | 50.13943 | 8.45032 | 35938 ft | 481 kts | 288° |
| 2026-05-07 04:17 | 50.16231 | 8.35226 | 35936 ft | 481 kts | 288° |
| 2026-05-07 04:18 | 50.18518 | 8.25389 | 35942 ft | 481 kts | 288° |
| 2026-05-07 04:18 | 50.20778 | 8.15625 | 35937 ft | 481 kts | 288° |
| 2026-05-07 04:19 | 50.23053 | 8.05745 | 35937 ft | 480 kts | 288° |
| 2026-05-07 04:19 | 50.25285 | 7.96003 | 35934 ft | 479 kts | 288° |
| 2026-05-07 04:20 | 50.27539 | 7.86124 | 35947 ft | 479 kts | 288° |
| 2026-05-07 04:20 | 50.29767 | 7.76309 | 35946 ft | 479 kts | 288° |
| 2026-05-07 04:21 | 50.33106 | 7.61516 | 35947 ft | 478 kts | 288° |
| 2026-05-07 04:21 | 50.35314 | 7.51680 | 35950 ft | 479 kts | 288° |
| 2026-05-07 04:22 | 50.37516 | 7.41821 | 35957 ft | 479 kts | 288° |
| 2026-05-07 04:22 | 50.39710 | 7.31952 | 35955 ft | 479 kts | 288° |
| 2026-05-07 04:23 | 50.41878 | 7.22154 | 35950 ft | 479 kts | 288° |
| 2026-05-07 04:23 | 50.44065 | 7.12221 | 35956 ft | 478 kts | 288° |
| 2026-05-07 04:24 | 50.46212 | 7.02425 | 35953 ft | 478 kts | 288° |
| 2026-05-07 04:24 | 50.48365 | 6.92561 | 35959 ft | 477 kts | 288° |
| 2026-05-07 04:25 | 50.50504 | 6.82707 | 35966 ft | 477 kts | 287° |
| 2026-05-07 04:25 | 50.52377 | 6.72713 | 35965 ft | 477 kts | 284° |
| 2026-05-07 04:26 | 50.54110 | 6.62652 | 35969 ft | 477 kts | 284° |
| 2026-05-07 04:26 | 50.55843 | 6.52574 | 35971 ft | 477 kts | 284° |
| 2026-05-07 04:27 | 50.57587 | 6.42504 | 35971 ft | 477 kts | 284° |
| 2026-05-07 04:27 | 50.59332 | 6.32422 | 35986 ft | 477 kts | 284° |
| 2026-05-07 04:28 | 50.61067 | 6.22341 | 35985 ft | 477 kts | 284° |
| 2026-05-07 04:28 | 50.62791 | 6.12262 | 35988 ft | 477 kts | 284° |
| 2026-05-07 04:29 | 50.64508 | 6.02161 | 35990 ft | 477 kts | 284° |
| 2026-05-07 04:29 | 50.66215 | 5.92063 | 35999 ft | 477 kts | 284° |
| 2026-05-07 04:30 | 50.67914 | 5.81952 | 35990 ft | 477 kts | 284° |
| 2026-05-07 04:30 | 50.69592 | 5.71904 | 35995 ft | 477 kts | 284° |
| 2026-05-07 04:31 | 50.71275 | 5.61769 | 35995 ft | 477 kts | 284° |
| 2026-05-07 04:31 | 50.72946 | 5.51646 | 35993 ft | 477 kts | 284° |
| 2026-05-07 04:32 | 50.74607 | 5.41528 | 35995 ft | 477 kts | 284° |
| 2026-05-07 04:32 | 50.76263 | 5.31372 | 36001 ft | 476 kts | 284° |
| 2026-05-07 04:33 | 50.77907 | 5.21242 | 35999 ft | 476 kts | 284° |
| 2026-05-07 04:33 | 50.79545 | 5.11088 | 36012 ft | 475 kts | 284° |
| 2026-05-07 04:34 | 50.81592 | 5.01182 | 36007 ft | 475 kts | 294° |
| 2026-05-07 04:34 | 50.84518 | 4.91901 | 36010 ft | 474 kts | 297° |
| 2026-05-07 04:35 | 50.87540 | 4.82542 | 36014 ft | 474 kts | 296° |
| 2026-05-07 04:35 | 50.90509 | 4.73213 | 36013 ft | 474 kts | 296° |
| 2026-05-07 04:36 | 50.93430 | 4.63932 | 36020 ft | 473 kts | 296° |
| 2026-05-07 04:36 | 50.96356 | 4.54577 | 36017 ft | 473 kts | 296° |
| 2026-05-07 04:37 | 50.99272 | 4.45224 | 36018 ft | 473 kts | 296° |
| 2026-05-07 04:37 | 51.02182 | 4.35858 | 36015 ft | 473 kts | 296° |
| 2026-05-07 04:38 | 51.05085 | 4.26480 | 36023 ft | 473 kts | 295° |
| 2026-05-07 04:38 | 51.07980 | 4.17090 | 36013 ft | 473 kts | 295° |
| 2026-05-07 04:39 | 51.10888 | 4.07624 | 36018 ft | 473 kts | 295° |
| 2026-05-07 04:39 | 51.13745 | 3.98287 | 36011 ft | 473 kts | 295° |
| 2026-05-07 04:40 | 51.16620 | 3.88854 | 36014 ft | 473 kts | 295° |
| 2026-05-07 04:40 | 51.19485 | 3.79418 | 36009 ft | 473 kts | 295° |
| 2026-05-07 04:41 | 51.22361 | 3.69913 | 36008 ft | 473 kts | 295° |
| 2026-05-07 04:41 | 51.25416 | 3.60714 | 35910 ft | 468 kts | 300° |
| 2026-05-07 04:42 | 51.27078 | 3.56281 | 35412 ft | 463 kts | 300° |
| 2026-05-07 04:42 | 51.28738 | 3.51884 | 34931 ft | 458 kts | 300° |
| 2026-05-07 04:42 | 51.30363 | 3.47545 | 34455 ft | 453 kts | 300° |
| 2026-05-07 04:42 | 51.31960 | 3.43233 | 33990 ft | 448 kts | 300° |
| 2026-05-07 04:43 | 51.33539 | 3.38943 | 33423 ft | 444 kts | 300° |
| 2026-05-07 04:43 | 51.35002 | 3.34613 | 32884 ft | 440 kts | 295° |
| 2026-05-07 04:43 | 51.36164 | 3.30105 | 32344 ft | 436 kts | 290° |
| 2026-05-07 04:43 | 51.37209 | 3.25571 | 31820 ft | 432 kts | 290° |
| 2026-05-07 04:44 | 51.38248 | 3.21072 | 31306 ft | 429 kts | 290° |
| 2026-05-07 04:44 | 51.39294 | 3.16623 | 30805 ft | 426 kts | 290° |
| 2026-05-07 04:44 | 51.40341 | 3.12205 | 30309 ft | 422 kts | 290° |
| 2026-05-07 04:44 | 51.41380 | 3.07819 | 29766 ft | 419 kts | 290° |
| 2026-05-07 04:45 | 51.42403 | 3.03472 | 29202 ft | 415 kts | 290° |
| 2026-05-07 04:45 | 51.43388 | 2.99272 | 28608 ft | 400 kts | 290° |
| 2026-05-07 04:45 | 51.44361 | 2.95111 | 28026 ft | 387 kts | 290° |
| 2026-05-07 04:45 | 51.45276 | 2.91194 | 27473 ft | 375 kts | 290° |
| 2026-05-07 04:46 | 51.46176 | 2.87335 | 26925 ft | 363 kts | 290° |
| 2026-05-07 04:46 | 51.47047 | 2.83589 | 26387 ft | 354 kts | 290° |
| 2026-05-07 04:46 | 51.47897 | 2.79934 | 25867 ft | 346 kts | 289° |
| 2026-05-07 04:46 | 51.48464 | 2.77488 | 25534 ft | 347 kts | 289° |
| 2026-05-07 04:47 | 51.49580 | 2.72668 | 25101 ft | 349 kts | 289° |
| 2026-05-07 04:47 | 51.50427 | 2.69008 | 25048 ft | 349 kts | 289° |
| 2026-05-07 04:47 | 51.50984 | 2.66594 | 25046 ft | 349 kts | 289° |
| 2026-05-07 04:47 | 51.51826 | 2.62942 | 25038 ft | 348 kts | 289° |
| 2026-05-07 04:48 | 51.52682 | 2.59229 | 25059 ft | 363 kts | 289° |
| 2026-05-07 04:48 | 51.53580 | 2.55319 | 25062 ft | 382 kts | 289° |
| 2026-05-07 04:48 | 51.54522 | 2.51212 | 25060 ft | 401 kts | 289° |
| 2026-05-07 04:48 | 51.55500 | 2.46931 | 25060 ft | 418 kts | 289° |
| 2026-05-07 04:49 | 51.56515 | 2.42463 | 25015 ft | 429 kts | 289° |
| 2026-05-07 04:49 | 51.57523 | 2.38015 | 24457 ft | 413 kts | 289° |
| 2026-05-07 04:49 | 51.58467 | 2.33846 | 23746 ft | 400 kts | 290° |
| 2026-05-07 04:49 | 51.59410 | 2.29704 | 22910 ft | 387 kts | 290° |
| 2026-05-07 04:50 | 51.60319 | 2.25712 | 22057 ft | 371 kts | 290° |
| 2026-05-07 04:50 | 51.61188 | 2.21895 | 21263 ft | 357 kts | 290° |
| 2026-05-07 04:50 | 51.62025 | 2.18208 | 20480 ft | 344 kts | 290° |
| 2026-05-07 04:50 | 51.62828 | 2.14660 | 19871 ft | 331 kts | 290° |
| 2026-05-07 04:51 | 51.63609 | 2.11204 | 19384 ft | 326 kts | 290° |
| 2026-05-07 04:51 | 51.64364 | 2.07862 | 18898 ft | 318 kts | 290° |
| 2026-05-07 04:51 | 51.65105 | 2.04581 | 18401 ft | 306 kts | 290° |
| 2026-05-07 04:51 | 51.65816 | 2.01429 | 17847 ft | 293 kts | 290° |
| 2026-05-07 04:52 | 51.66497 | 1.98404 | 17291 ft | 282 kts | 290° |
| 2026-05-07 04:52 | 51.67162 | 1.95449 | 16737 ft | 272 kts | 290° |
| 2026-05-07 04:52 | 51.67801 | 1.92603 | 16200 ft | 270 kts | 290° |
| 2026-05-07 04:52 | 51.68444 | 1.89739 | 15787 ft | 274 kts | 290° |
| 2026-05-07 04:53 | 51.69096 | 1.86829 | 15412 ft | 277 kts | 290° |
| 2026-05-07 04:53 | 51.69748 | 1.83915 | 15059 ft | 276 kts | 290° |
| 2026-05-07 04:53 | 51.70394 | 1.81025 | 14810 ft | 271 kts | 290° |
| 2026-05-07 04:53 | 51.71028 | 1.78181 | 14545 ft | 267 kts | 290° |
| 2026-05-07 04:54 | 51.71651 | 1.75385 | 14295 ft | 263 kts | 290° |
| 2026-05-07 04:54 | 51.72265 | 1.72629 | 14049 ft | 259 kts | 290° |
| 2026-05-07 04:54 | 51.72878 | 1.69878 | 13870 ft | 270 kts | 290° |
| 2026-05-07 04:54 | 51.73535 | 1.66919 | 13733 ft | 289 kts | 290° |
| 2026-05-07 04:55 | 51.74220 | 1.63825 | 13538 ft | 294 kts | 290° |
| 2026-05-07 04:55 | 51.74752 | 1.60670 | 13289 ft | 293 kts | 274° |
| 2026-05-07 04:55 | 51.74640 | 1.57399 | 13101 ft | 293 kts | 264° |
| 2026-05-07 04:55 | 51.74404 | 1.54113 | 12918 ft | 297 kts | 264° |
| 2026-05-07 04:56 | 51.74170 | 1.50793 | 12703 ft | 299 kts | 264° |
| 2026-05-07 04:56 | 51.73939 | 1.47475 | 12489 ft | 296 kts | 265° |
| 2026-05-07 04:56 | 51.73714 | 1.44194 | 12269 ft | 293 kts | 264° |
| 2026-05-07 04:56 | 51.73497 | 1.40983 | 12045 ft | 290 kts | 264° |
| 2026-05-07 04:57 | 51.73280 | 1.37753 | 11851 ft | 288 kts | 264° |
| 2026-05-07 04:57 | 51.73066 | 1.34552 | 11646 ft | 286 kts | 265° |
| 2026-05-07 04:57 | 51.72854 | 1.31366 | 11441 ft | 284 kts | 265° |
| 2026-05-07 04:57 | 51.72643 | 1.28202 | 11237 ft | 284 kts | 265° |
| 2026-05-07 04:58 | 51.72430 | 1.25017 | 11047 ft | 286 kts | 265° |
| 2026-05-07 04:58 | 51.72215 | 1.21810 | 10856 ft | 289 kts | 264° |
| 2026-05-07 04:58 | 51.71998 | 1.18583 | 10647 ft | 290 kts | 265° |
| 2026-05-07 04:58 | 51.71780 | 1.15365 | 10464 ft | 287 kts | 265° |
| 2026-05-07 04:59 | 51.71565 | 1.12196 | 10255 ft | 281 kts | 265° |
| 2026-05-07 04:59 | 51.71353 | 1.09088 | 10051 ft | 275 kts | 265° |
| 2026-05-07 04:59 | 51.71146 | 1.06049 | 9829 ft | 270 kts | 265° |
| 2026-05-07 04:59 | 51.70942 | 1.03069 | 9552 ft | 266 kts | 265° |
| 2026-05-07 05:00 | 51.70737 | 1.00090 | 9134 ft | 267 kts | 264° |
| 2026-05-07 05:00 | 51.70530 | 0.97106 | 8767 ft | 268 kts | 265° |
| 2026-05-07 05:00 | 51.70324 | 0.94146 | 8369 ft | 270 kts | 264° |
| 2026-05-07 05:00 | 51.70116 | 0.91139 | 7860 ft | 268 kts | 263° |
| 2026-05-07 05:01 | 51.69911 | 0.88179 | 7328 ft | 261 kts | 263° |
| 2026-05-07 05:01 | 51.69713 | 0.85327 | 6811 ft | 252 kts | 262° |
| 2026-05-07 05:01 | 51.69521 | 0.82581 | 6402 ft | 240 kts | 262° |
| 2026-05-07 05:01 | 51.69340 | 0.79986 | 6096 ft | 224 kts | 262° |
| 2026-05-07 05:02 | 51.69170 | 0.77555 | 5772 ft | 212 kts | 262° |
| 2026-05-07 05:02 | 51.69004 | 0.75217 | 5505 ft | 211 kts | 262° |
| 2026-05-07 05:02 | 51.68835 | 0.72847 | 5320 ft | 214 kts | 263° |
| 2026-05-07 05:02 | 51.68665 | 0.70462 | 5176 ft | 215 kts | 263° |
| 2026-05-07 05:03 | 51.68494 | 0.68065 | 5028 ft | 215 kts | 263° |
| 2026-05-07 05:03 | 51.68323 | 0.65668 | 4868 ft | 215 kts | 263° |
| 2026-05-07 05:03 | 51.68151 | 0.63264 | 4724 ft | 216 kts | 263° |
| 2026-05-07 05:03 | 51.67980 | 0.60867 | 4565 ft | 216 kts | 263° |
| 2026-05-07 05:04 | 51.67816 | 0.58597 | 4417 ft | 215 kts | 263° |
| 2026-05-07 05:05 | 51.67647 | 0.56237 | 4263 ft | 215 kts | 263° |
| 2026-05-07 05:05 | 51.67473 | 0.53853 | 4104 ft | 214 kts | 263° |
| 2026-05-07 05:05 | 51.67300 | 0.51478 | 3947 ft | 213 kts | 263° |
| 2026-05-07 05:05 | 51.67127 | 0.49143 | 3782 ft | 205 kts | 261° |
| 2026-05-07 05:06 | 51.66723 | 0.47036 | 3681 ft | 191 kts | 245° |
| 2026-05-07 05:06 | 51.66166 | 0.45121 | 3519 ft | 187 kts | 243° |
| 2026-05-07 05:06 | 51.65602 | 0.43244 | 3365 ft | 186 kts | 243° |
| 2026-05-07 05:06 | 51.65038 | 0.41366 | 3216 ft | 187 kts | 243° |
| 2026-05-07 05:07 | 51.64476 | 0.39488 | 3107 ft | 185 kts | 243° |
| 2026-05-07 05:07 | 51.63918 | 0.37618 | 3048 ft | 186 kts | 244° |
| 2026-05-07 05:07 | 51.63365 | 0.35754 | 2932 ft | 183 kts | 243° |
| 2026-05-07 05:07 | 51.62820 | 0.33918 | 2661 ft | 180 kts | 243° |
| 2026-05-07 05:08 | 51.62293 | 0.32136 | 2369 ft | 174 kts | 243° |
| 2026-05-07 05:08 | 51.61772 | 0.30373 | 2146 ft | 174 kts | 243° |
| 2026-05-07 05:08 | 51.61257 | 0.28628 | 2095 ft | 173 kts | 243° |
| 2026-05-07 05:08 | 51.60735 | 0.26863 | 2064 ft | 176 kts | 243° |
| 2026-05-07 05:09 | 51.60212 | 0.25091 | 2076 ft | 175 kts | 243° |
| 2026-05-07 05:09 | 51.59688 | 0.23311 | 2050 ft | 176 kts | 243° |
| 2026-05-07 05:09 | 51.59172 | 0.21561 | 2046 ft | 172 kts | 244° |
| 2026-05-07 05:09 | 51.58669 | 0.19855 | 2067 ft | 167 kts | 243° |
| 2026-05-07 05:10 | 51.58168 | 0.18159 | 2069 ft | 170 kts | 243° |
| 2026-05-07 05:10 | 51.57659 | 0.16435 | 1989 ft | 170 kts | 244° |
| 2026-05-07 05:10 | 51.57154 | 0.14729 | 1761 ft | 168 kts | 244° |
| 2026-05-07 05:10 | 51.56661 | 0.13058 | 1599 ft | 162 kts | 244° |
| 2026-05-07 05:11 | 51.56180 | 0.11431 | 1547 ft | 162 kts | 244° |
| 2026-05-07 05:11 | 51.55695 | 0.09795 | 1551 ft | 162 kts | 244° |
| 2026-05-07 05:11 | 51.55207 | 0.08148 | 1568 ft | 164 kts | 244° |
| 2026-05-07 05:11 | 51.54713 | 0.06481 | 1555 ft | 165 kts | 244° |
| 2026-05-07 05:12 | 51.54221 | 0.04818 | 1560 ft | 165 kts | 244° |
| 2026-05-07 05:12 | 51.53728 | 0.03157 | 1567 ft | 165 kts | 244° |
| 2026-05-07 05:12 | 51.53232 | 0.01487 | 1546 ft | 165 kts | 244° |
| 2026-05-07 05:12 | 51.52738 | -0.00180 | 1552 ft | 165 kts | 244° |
| 2026-05-07 05:13 | 51.52242 | -0.01847 | 1541 ft | 165 kts | 244° |
| 2026-05-07 05:13 | 51.51749 | -0.03507 | 1536 ft | 165 kts | 244° |
| 2026-05-07 05:13 | 51.51257 | -0.05163 | 1520 ft | 164 kts | 244° |
| 2026-05-07 05:13 | 51.50767 | -0.06810 | 1527 ft | 163 kts | 244° |
| 2026-05-07 05:14 | 51.50278 | -0.08450 | 1522 ft | 163 kts | 244° |
| 2026-05-07 05:14 | 51.49788 | -0.10091 | 1528 ft | 163 kts | 244° |
| 2026-05-07 05:14 | 51.49297 | -0.11735 | 1525 ft | 164 kts | 244° |
| 2026-05-07 05:14 | 51.48802 | -0.13389 | 1529 ft | 164 kts | 244° |
| 2026-05-07 05:15 | 51.48309 | -0.15039 | 1521 ft | 164 kts | 245° |
| 2026-05-07 05:15 | 51.48062 | -0.16789 | 1524 ft | 160 kts | 266° |
| 2026-05-07 05:15 | 51.47993 | -0.18581 | 1538 ft | 162 kts | 266° |
| 2026-05-07 05:15 | 51.47949 | -0.20397 | 1534 ft | 164 kts | 268° |
| 2026-05-07 05:16 | 51.47926 | -0.22240 | 1527 ft | 166 kts | 269° |
| 2026-05-07 05:16 | 51.47912 | -0.24075 | 1515 ft | 162 kts | 269° |
| 2026-05-07 05:16 | 51.47900 | -0.25859 | 1505 ft | 158 kts | 269° |
| 2026-05-07 05:16 | 51.47888 | -0.27618 | 1522 ft | 158 kts | 269° |
| 2026-05-07 05:17 | 51.47877 | -0.29387 | 1529 ft | 159 kts | 269° |
| 2026-05-07 05:17 | 51.47865 | -0.31171 | 1544 ft | 161 kts | 269° |
| 2026-05-07 05:17 | 51.47853 | -0.32985 | 1409 ft | 164 kts | 269° |
| 2026-05-07 05:17 | 51.47842 | -0.34790 | 1174 ft | 159 kts | 269° |
| 2026-05-07 05:18 | 51.47830 | -0.36542 | 952 ft | 156 kts | 269° |
| 2026-05-07 05:18 | 51.47819 | -0.38289 | 740 ft | 157 kts | 270° |
| 2026-05-07 05:18 | 51.47807 | -0.40026 | 526 ft | 155 kts | 270° |
| 2026-05-07 05:18 | 51.47791 | -0.41735 | 310 ft | 155 kts | 269° |
| 2026-05-07 05:19 | 51.47763 | -0.43426 | 134 ft | 144 kts | 270° |
| 2026-05-07 05:19 | 51.47763 | -0.44894 | 95 ft | 118 kts | 270° |
| 2026-05-07 05:19 | 51.47760 | -0.45897 | 92 ft | 45 kts | 270° |
| 2026-05-07 05:19 | 51.47759 | -0.46313 | 95 ft | 35 kts | 269° |
| 2026-05-07 05:20 | 51.47714 | -0.46675 | 95 ft | 32 kts | 246° |
| 2026-05-07 05:20 | 51.47624 | -0.46874 | 96 ft | 16 kts | 208° |
| 2026-05-07 05:20 | 51.47516 | -0.46917 | 94 ft | 16 kts | 174° |
| 2026-05-07 05:20 | 51.47405 | -0.46879 | 94 ft | 16 kts | 168° |
| 2026-05-07 05:21 | 51.47308 | -0.46868 | 94 ft | 17 kts | 179° |
| 2026-05-07 05:21 | 51.47078 | -0.46864 | 91 ft | 17 kts | 179° |
| 2026-05-07 05:21 | 51.46964 | -0.46862 | 91 ft | 17 kts | 179° |
| 2026-05-07 05:22 | 51.46850 | -0.46860 | 93 ft | 17 kts | 179° |
| 2026-05-07 05:22 | 51.46735 | -0.46861 | 94 ft | 16 kts | 180° |
| 2026-05-07 05:22 | 51.46660 | -0.46776 | 96 ft | 15 kts | 97° |
| 2026-05-07 05:22 | 51.46658 | -0.46608 | 95 ft | 15 kts | 89° |
| 2026-05-07 05:23 | 51.46659 | -0.46440 | 95 ft | 15 kts | 90° |
| 2026-05-07 05:23 | 51.46659 | -0.46267 | 94 ft | 16 kts | 89° |
| 2026-05-07 05:23 | 51.46660 | -0.46074 | 93 ft | 19 kts | 89° |
| 2026-05-07 05:23 | 51.46625 | -0.45933 | 96 ft | 14 kts | 139° |
| 2026-05-07 05:24 | 51.46502 | -0.45793 | 94 ft | 30 kts | 144° |
| 2026-05-07 05:24 | 51.46380 | -0.45661 | 95 ft | 8 kts | 147° |
| 2026-05-07 05:24 | 51.46321 | -0.45595 | 96 ft | 19 kts | 144° |
| 2026-05-07 05:24 | 51.46215 | -0.45473 | 95 ft | 14 kts | 132° |
| 2026-05-07 05:25 | 51.46199 | -0.45310 | 94 ft | 17 kts | 91° |
| 2026-05-07 05:25 | 51.46199 | -0.45180 | 94 ft | 17 kts | 90° |
| 2026-05-07 05:25 | 51.46199 | -0.44993 | 94 ft | 12 kts | 90° |
| 2026-05-07 05:25 | 51.46190 | -0.44860 | 91 ft | 12 kts | 107° |
| 2026-05-07 05:26 | 51.46144 | -0.44755 | 95 ft | 8 kts | 130° |
| 2026-05-07 05:26 | 51.46129 | -0.44726 | 96 ft | 0 kts | 131° |